sensor_id;sensor_type;location;lat;lon;timestamp;temperature;humidity
24802;DHT22;12898;50.520;12.152;2022-09-09T00:07:25;12.60;99.90
24802;DHT22;12898;50.520;12.152;2022-09-09T00:10:13;12.60;99.90
24802;DHT22;12898;50.520;12.152;2022-09-09T00:16:25;12.60;99.90
24802;DHT22;12898;50.520;12.152;2022-09-09T00:19:06;12.60;99.90
24802;DHT22;12898;50.520;12.152;2022-09-09T00:21:36;12.60;99.90
24802;DHT22;12898;50.520;12.152;2022-09-09T00:24:16;12.60;99.90
24802;DHT22;12898;50.520;12.152;2022-09-09T00:26:56;12.60;99.90
24802;DHT22;12898;50.520;12.152;2022-09-09T00:29:45;12.60;99.90
24802;DHT22;12898;50.520;12.152;2022-09-09T00:32:17;12.50;99.90
24802;DHT22;12898;50.520;12.152;2022-09-09T00:35:17;12.40;99.90
24802;DHT22;12898;50.520;12.152;2022-09-09T00:37:45;12.30;99.90
24802;DHT22;12898;50.520;12.152;2022-09-09T00:40:33;12.10;99.90
24802;DHT22;12898;50.520;12.152;2022-09-09T00:49:10;11.60;99.90
24802;DHT22;12898;50.520;12.152;2022-09-09T00:55:13;11.20;99.90
24802;DHT22;12898;50.520;12.152;2022-09-09T00:57:42;11.10;99.90
24802;DHT22;12898;50.520;12.152;2022-09-09T01:00:24;11.00;99.90
24802;DHT22;12898;50.520;12.152;2022-09-09T01:06:01;10.80;99.90
24802;DHT22;12898;50.520;12.152;2022-09-09T01:08:36;10.70;99.90
24802;DHT22;12898;50.520;12.152;2022-09-09T01:11:10;10.60;99.90
24802;DHT22;12898;50.520;12.152;2022-09-09T01:13:41;10.60;99.90
24802;DHT22;12898;50.520;12.152;2022-09-09T01:16:10;10.50;99.90
24802;DHT22;12898;50.520;12.152;2022-09-09T01:18:43;10.50;99.90
24802;DHT22;12898;50.520;12.152;2022-09-09T01:24:19;10.40;99.90
24802;DHT22;12898;50.520;12.152;2022-09-09T01:26:48;10.40;99.90
24802;DHT22;12898;50.520;12.152;2022-09-09T01:29:17;10.30;99.90
24802;DHT22;12898;50.520;12.152;2022-09-09T01:31:58;10.30;99.90
24802;DHT22;12898;50.520;12.152;2022-09-09T01:34:28;10.30;99.90
24802;DHT22;12898;50.520;12.152;2022-09-09T01:37:07;10.30;99.90
24802;DHT22;12898;50.520;12.152;2022-09-09T01:39:36;10.40;99.90
24802;DHT22;12898;50.520;12.152;2022-09-09T01:42:05;10.30;99.90
24802;DHT22;12898;50.520;12.152;2022-09-09T01:44:32;10.20;99.90
24802;DHT22;12898;50.520;12.152;2022-09-09T01:46:59;10.20;99.90
24802;DHT22;12898;50.520;12.152;2022-09-09T01:49:25;10.10;99.90
24802;DHT22;12898;50.520;12.152;2022-09-09T01:51:54;10.10;99.90
24802;DHT22;12898;50.520;12.152;2022-09-09T01:54:23;10.00;99.90
24802;DHT22;12898;50.520;12.152;2022-09-09T01:57:18;10.00;99.90
24802;DHT22;12898;50.520;12.152;2022-09-09T02:00:09;9.90;99.90
24802;DHT22;12898;50.520;12.152;2022-09-09T02:03:00;9.80;99.90
24802;DHT22;12898;50.520;12.152;2022-09-09T02:05:38;9.80;99.90
24802;DHT22;12898;50.520;12.152;2022-09-09T02:08:17;9.70;99.90
24802;DHT22;12898;50.520;12.152;2022-09-09T02:11:01;9.70;99.90
24802;DHT22;12898;50.520;12.152;2022-09-09T02:13:40;9.70;99.90
24802;DHT22;12898;50.520;12.152;2022-09-09T02:19:08;9.60;99.90
24802;DHT22;12898;50.520;12.152;2022-09-09T02:21:39;9.60;99.90
24802;DHT22;12898;50.520;12.152;2022-09-09T02:24:08;9.60;99.90
24802;DHT22;12898;50.520;12.152;2022-09-09T02:26:42;9.70;99.90
24802;DHT22;12898;50.520;12.152;2022-09-09T02:29:14;9.70;99.90
24802;DHT22;12898;50.520;12.152;2022-09-09T02:31:44;9.80;99.90
24802;DHT22;12898;50.520;12.152;2022-09-09T02:34:12;9.80;99.90
24802;DHT22;12898;50.520;12.152;2022-09-09T02:36:40;9.80;99.90
24802;DHT22;12898;50.520;12.152;2022-09-09T02:39:09;9.80;99.90
24802;DHT22;12898;50.520;12.152;2022-09-09T02:41:38;9.80;99.90
24802;DHT22;12898;50.520;12.152;2022-09-09T02:44:13;9.80;99.90
24802;DHT22;12898;50.520;12.152;2022-09-09T02:49:52;9.90;99.90
24802;DHT22;12898;50.520;12.152;2022-09-09T02:55:16;9.90;99.90
24802;DHT22;12898;50.520;12.152;2022-09-09T02:57:46;9.90;99.90
24802;DHT22;12898;50.520;12.152;2022-09-09T03:00:13;9.80;99.90
24802;DHT22;12898;50.520;12.152;2022-09-09T03:02:39;9.80;99.90
24802;DHT22;12898;50.520;12.152;2022-09-09T03:05:06;9.80;99.90
24802;DHT22;12898;50.520;12.152;2022-09-09T03:07:32;9.80;99.90
24802;DHT22;12898;50.520;12.152;2022-09-09T03:09:57;9.80;99.90
24802;DHT22;12898;50.520;12.152;2022-09-09T03:12:24;9.80;99.90
24802;DHT22;12898;50.520;12.152;2022-09-09T03:14:49;9.90;99.90
24802;DHT22;12898;50.520;12.152;2022-09-09T03:17:15;9.90;99.90
24802;DHT22;12898;50.520;12.152;2022-09-09T03:19:42;9.90;99.90
24802;DHT22;12898;50.520;12.152;2022-09-09T03:22:10;10.00;99.90
24802;DHT22;12898;50.520;12.152;2022-09-09T03:24:36;9.90;99.90
24802;DHT22;12898;50.520;12.152;2022-09-09T03:27:02;9.90;99.90
24802;DHT22;12898;50.520;12.152;2022-09-09T03:29:28;9.90;99.90
24802;DHT22;12898;50.520;12.152;2022-09-09T03:31:53;10.00;99.90
24802;DHT22;12898;50.520;12.152;2022-09-09T03:34:19;10.20;99.90
24802;DHT22;12898;50.520;12.152;2022-09-09T03:36:45;10.30;99.90
24802;DHT22;12898;50.520;12.152;2022-09-09T03:39:11;10.50;99.90
24802;DHT22;12898;50.520;12.152;2022-09-09T03:41:37;10.60;99.90
24802;DHT22;12898;50.520;12.152;2022-09-09T03:44:03;10.60;99.90
24802;DHT22;12898;50.520;12.152;2022-09-09T03:46:28;10.70;99.90
24802;DHT22;12898;50.520;12.152;2022-09-09T03:48:54;10.80;99.90
24802;DHT22;12898;50.520;12.152;2022-09-09T03:51:20;11.00;99.90
24802;DHT22;12898;50.520;12.152;2022-09-09T03:53:46;11.10;99.90
24802;DHT22;12898;50.520;12.152;2022-09-09T03:56:13;11.20;99.90
24802;DHT22;12898;50.520;12.152;2022-09-09T03:58:39;11.30;99.90
24802;DHT22;12898;50.520;12.152;2022-09-09T04:01:10;11.40;99.90
24802;DHT22;12898;50.520;12.152;2022-09-09T04:03:41;11.50;99.90
24802;DHT22;12898;50.520;12.152;2022-09-09T04:06:09;11.60;99.90
24802;DHT22;12898;50.520;12.152;2022-09-09T04:08:37;11.60;99.90
24802;DHT22;12898;50.520;12.152;2022-09-09T04:11:04;11.70;99.90
24802;DHT22;12898;50.520;12.152;2022-09-09T04:13:32;11.70;99.90
24802;DHT22;12898;50.520;12.152;2022-09-09T04:16:00;11.70;99.90
24802;DHT22;12898;50.520;12.152;2022-09-09T04:18:27;11.70;99.90
24802;DHT22;12898;50.520;12.152;2022-09-09T04:20:56;11.80;99.90
24802;DHT22;12898;50.520;12.152;2022-09-09T04:23:24;11.80;99.90
24802;DHT22;12898;50.520;12.152;2022-09-09T04:25:54;11.80;99.90
24802;DHT22;12898;50.520;12.152;2022-09-09T04:28:23;11.80;99.90
24802;DHT22;12898;50.520;12.152;2022-09-09T04:30:50;11.80;99.90
24802;DHT22;12898;50.520;12.152;2022-09-09T04:33:17;11.90;99.90
24802;DHT22;12898;50.520;12.152;2022-09-09T04:35:45;11.90;99.90
24802;DHT22;12898;50.520;12.152;2022-09-09T04:38:12;12.00;99.90
24802;DHT22;12898;50.520;12.152;2022-09-09T04:40:38;12.00;99.90
24802;DHT22;12898;50.520;12.152;2022-09-09T04:43:07;12.00;99.90
24802;DHT22;12898;50.520;12.152;2022-09-09T04:45:33;12.10;99.90
24802;DHT22;12898;50.520;12.152;2022-09-09T04:47:59;12.10;99.90
24802;DHT22;12898;50.520;12.152;2022-09-09T04:50:25;12.20;99.90
24802;DHT22;12898;50.520;12.152;2022-09-09T04:52:50;12.20;99.90
24802;DHT22;12898;50.520;12.152;2022-09-09T04:55:16;12.30;99.90
24802;DHT22;12898;50.520;12.152;2022-09-09T04:57:42;12.40;99.90
24802;DHT22;12898;50.520;12.152;2022-09-09T05:00:08;12.40;99.90
24802;DHT22;12898;50.520;12.152;2022-09-09T05:02:39;12.50;99.90
24802;DHT22;12898;50.520;12.152;2022-09-09T05:05:06;12.60;99.90
24802;DHT22;12898;50.520;12.152;2022-09-09T05:07:31;12.60;99.90
24802;DHT22;12898;50.520;12.152;2022-09-09T05:09:58;12.70;99.90
24802;DHT22;12898;50.520;12.152;2022-09-09T05:12:24;12.80;99.90
24802;DHT22;12898;50.520;12.152;2022-09-09T05:14:51;12.80;99.90
24802;DHT22;12898;50.520;12.152;2022-09-09T05:17:17;12.90;99.90
24802;DHT22;12898;50.520;12.152;2022-09-09T05:19:43;13.00;99.90
24802;DHT22;12898;50.520;12.152;2022-09-09T05:22:09;13.00;99.90
24802;DHT22;12898;50.520;12.152;2022-09-09T05:24:37;13.10;99.90
24802;DHT22;12898;50.520;12.152;2022-09-09T05:27:03;13.10;99.90
24802;DHT22;12898;50.520;12.152;2022-09-09T05:29:31;13.20;99.90
24802;DHT22;12898;50.520;12.152;2022-09-09T05:31:59;13.20;99.90
24802;DHT22;12898;50.520;12.152;2022-09-09T05:34:25;13.30;99.90
24802;DHT22;12898;50.520;12.152;2022-09-09T05:36:50;13.30;99.90
24802;DHT22;12898;50.520;12.152;2022-09-09T05:39:17;13.40;99.90
24802;DHT22;12898;50.520;12.152;2022-09-09T05:41:43;13.40;99.90
24802;DHT22;12898;50.520;12.152;2022-09-09T05:44:09;13.50;99.90
24802;DHT22;12898;50.520;12.152;2022-09-09T05:46:35;13.60;99.90
24802;DHT22;12898;50.520;12.152;2022-09-09T05:49:02;13.70;99.90
24802;DHT22;12898;50.520;12.152;2022-09-09T05:51:28;13.70;99.90
24802;DHT22;12898;50.520;12.152;2022-09-09T05:53:58;13.90;99.90
24802;DHT22;12898;50.520;12.152;2022-09-09T05:56:25;14.00;99.90
24802;DHT22;12898;50.520;12.152;2022-09-09T05:58:53;14.00;99.90
24802;DHT22;12898;50.520;12.152;2022-09-09T06:01:25;14.10;99.90
24802;DHT22;12898;50.520;12.152;2022-09-09T06:03:52;14.20;99.90
24802;DHT22;12898;50.520;12.152;2022-09-09T06:06:21;14.30;99.90
24802;DHT22;12898;50.520;12.152;2022-09-09T06:08:50;14.40;99.90
24802;DHT22;12898;50.520;12.152;2022-09-09T06:11:24;14.50;99.90
24802;DHT22;12898;50.520;12.152;2022-09-09T06:13:52;14.50;99.90
24802;DHT22;12898;50.520;12.152;2022-09-09T06:16:21;14.60;99.90
24802;DHT22;12898;50.520;12.152;2022-09-09T06:18:52;14.60;99.90
24802;DHT22;12898;50.520;12.152;2022-09-09T06:21:27;14.80;99.90
24802;DHT22;12898;50.520;12.152;2022-09-09T06:23:55;14.90;99.90
24802;DHT22;12898;50.520;12.152;2022-09-09T06:26:30;14.90;99.90
24802;DHT22;12898;50.520;12.152;2022-09-09T06:29:00;14.90;99.90
24802;DHT22;12898;50.520;12.152;2022-09-09T06:31:30;15.00;99.90
24802;DHT22;12898;50.520;12.152;2022-09-09T06:33:59;15.10;99.90
24802;DHT22;12898;50.520;12.152;2022-09-09T06:36:31;15.20;99.90
24802;DHT22;12898;50.520;12.152;2022-09-09T06:38:59;15.30;99.90
24802;DHT22;12898;50.520;12.152;2022-09-09T06:41:27;15.40;99.90
24802;DHT22;12898;50.520;12.152;2022-09-09T06:43:54;15.50;99.90
24802;DHT22;12898;50.520;12.152;2022-09-09T06:46:29;15.60;99.90
24802;DHT22;12898;50.520;12.152;2022-09-09T06:48:57;15.70;99.90
24802;DHT22;12898;50.520;12.152;2022-09-09T06:51:29;15.80;99.90
24802;DHT22;12898;50.520;12.152;2022-09-09T06:53:58;15.80;99.90
24802;DHT22;12898;50.520;12.152;2022-09-09T06:56:30;15.80;99.90
24802;DHT22;12898;50.520;12.152;2022-09-09T06:58:59;15.80;99.90
24802;DHT22;12898;50.520;12.152;2022-09-09T07:01:34;15.80;99.90
24802;DHT22;12898;50.520;12.152;2022-09-09T07:04:01;15.80;99.90
24802;DHT22;12898;50.520;12.152;2022-09-09T07:06:31;15.80;99.90
24802;DHT22;12898;50.520;12.152;2022-09-09T07:09:00;15.90;99.90
24802;DHT22;12898;50.520;12.152;2022-09-09T07:11:32;15.90;99.90
24802;DHT22;12898;50.520;12.152;2022-09-09T07:14:00;16.00;99.90
24802;DHT22;12898;50.520;12.152;2022-09-09T07:16:26;16.10;99.90
24802;DHT22;12898;50.520;12.152;2022-09-09T07:18:53;16.10;99.90
24802;DHT22;12898;50.520;12.152;2022-09-09T07:21:24;16.20;99.90
24802;DHT22;12898;50.520;12.152;2022-09-09T07:23:51;16.20;99.90
24802;DHT22;12898;50.520;12.152;2022-09-09T07:26:19;16.30;99.90
24802;DHT22;12898;50.520;12.152;2022-09-09T07:28:46;16.50;99.90
24802;DHT22;12898;50.520;12.152;2022-09-09T07:31:20;16.70;99.90
24802;DHT22;12898;50.520;12.152;2022-09-09T07:33:57;16.90;99.90
24802;DHT22;12898;50.520;12.152;2022-09-09T07:36:33;17.10;99.90
24802;DHT22;12898;50.520;12.152;2022-09-09T07:39:02;17.30;99.90
24802;DHT22;12898;50.520;12.152;2022-09-09T07:41:33;17.50;99.90
24802;DHT22;12898;50.520;12.152;2022-09-09T07:44:10;17.60;99.90
24802;DHT22;12898;50.520;12.152;2022-09-09T07:46:50;17.70;99.90
24802;DHT22;12898;50.520;12.152;2022-09-09T07:49:16;17.80;99.90
24802;DHT22;12898;50.520;12.152;2022-09-09T07:51:46;17.90;99.90
24802;DHT22;12898;50.520;12.152;2022-09-09T07:54:15;18.10;99.90
24802;DHT22;12898;50.520;12.152;2022-09-09T07:56:45;18.30;99.90
24802;DHT22;12898;50.520;12.152;2022-09-09T07:59:12;18.40;99.90
24802;DHT22;12898;50.520;12.152;2022-09-09T08:01:49;18.50;99.90
24802;DHT22;12898;50.520;12.152;2022-09-09T08:04:18;18.40;99.90
24802;DHT22;12898;50.520;12.152;2022-09-09T08:06:56;18.40;99.90
24802;DHT22;12898;50.520;12.152;2022-09-09T08:09:23;18.40;99.90
24802;DHT22;12898;50.520;12.152;2022-09-09T08:11:52;18.40;99.90
24802;DHT22;12898;50.520;12.152;2022-09-09T08:14:18;18.30;99.90
24802;DHT22;12898;50.520;12.152;2022-09-09T08:16:46;18.30;99.90
24802;DHT22;12898;50.520;12.152;2022-09-09T08:19:13;18.20;99.90
24802;DHT22;12898;50.520;12.152;2022-09-09T08:21:41;18.00;99.90
24802;DHT22;12898;50.520;12.152;2022-09-09T08:24:08;18.10;99.90
24802;DHT22;12898;50.520;12.152;2022-09-09T08:26:40;18.40;99.90
24802;DHT22;12898;50.520;12.152;2022-09-09T08:29:09;18.90;99.90
24802;DHT22;12898;50.520;12.152;2022-09-09T08:31:46;19.50;99.90
24802;DHT22;12898;50.520;12.152;2022-09-09T08:34:23;19.70;99.90
24802;DHT22;12898;50.520;12.152;2022-09-09T08:36:54;20.10;99.90
24802;DHT22;12898;50.520;12.152;2022-09-09T08:39:21;20.30;99.90
24802;DHT22;12898;50.520;12.152;2022-09-09T08:50:19;21.60;99.90
24802;DHT22;12898;50.520;12.152;2022-09-09T08:58:31;22.00;99.20
24802;DHT22;12898;50.520;12.152;2022-09-09T09:03:32;22.20;98.80
24802;DHT22;12898;50.520;12.152;2022-09-09T09:11:39;22.40;96.40
24802;DHT22;12898;50.520;12.152;2022-09-09T09:17:07;22.60;93.90
24802;DHT22;12898;50.520;12.152;2022-09-09T09:19:39;22.30;93.60
24802;DHT22;12898;50.520;12.152;2022-09-09T09:22:18;22.60;92.80
24802;DHT22;12898;50.520;12.152;2022-09-09T09:25:22;22.60;93.00
24802;DHT22;12898;50.520;12.152;2022-09-09T09:30:53;22.90;92.30
24802;DHT22;12898;50.520;12.152;2022-09-09T09:33:44;23.10;90.70
24802;DHT22;12898;50.520;12.152;2022-09-09T09:36:12;22.70;90.60
24802;DHT22;12898;50.520;12.152;2022-09-09T09:38:52;22.30;92.30
24802;DHT22;12898;50.520;12.152;2022-09-09T09:41:39;22.10;92.60
24802;DHT22;12898;50.520;12.152;2022-09-09T09:44:26;22.00;94.30
24802;DHT22;12898;50.520;12.152;2022-09-09T09:47:04;21.90;93.90
24802;DHT22;12898;50.520;12.152;2022-09-09T09:49:51;22.00;92.70
24802;DHT22;12898;50.520;12.152;2022-09-09T09:52:31;21.80;91.50
24802;DHT22;12898;50.520;12.152;2022-09-09T09:55:03;21.60;92.50
24802;DHT22;12898;50.520;12.152;2022-09-09T09:57:33;21.30;93.50
24802;DHT22;12898;50.520;12.152;2022-09-09T10:02:42;21.80;94.20
24802;DHT22;12898;50.520;12.152;2022-09-09T10:05:16;22.20;92.50
24802;DHT22;12898;50.520;12.152;2022-09-09T10:07:44;22.40;91.80
24802;DHT22;12898;50.520;12.152;2022-09-09T10:10:23;22.50;87.50
24802;DHT22;12898;50.520;12.152;2022-09-09T10:13:06;22.80;90.20
24802;DHT22;12898;50.520;12.152;2022-09-09T10:21:35;22.80;86.90
24802;DHT22;12898;50.520;12.152;2022-09-09T10:27:57;23.00;81.40
24802;DHT22;12898;50.520;12.152;2022-09-09T10:33:41;23.10;81.40
24802;DHT22;12898;50.520;12.152;2022-09-09T10:36:20;23.10;81.90
24802;DHT22;12898;50.520;12.152;2022-09-09T10:39:01;22.70;80.80
24802;DHT22;12898;50.520;12.152;2022-09-09T10:41:53;22.30;81.30
24802;DHT22;12898;50.520;12.152;2022-09-09T10:44:37;22.30;84.20
24802;DHT22;12898;50.520;12.152;2022-09-09T10:53:28;23.10;76.30
24802;DHT22;12898;50.520;12.152;2022-09-09T10:56:15;23.10;76.10
24802;DHT22;12898;50.520;12.152;2022-09-09T10:59:12;22.90;79.50
24802;DHT22;12898;50.520;12.152;2022-09-09T11:01:57;23.10;79.40
24802;DHT22;12898;50.520;12.152;2022-09-09T11:04:35;23.40;79.30
24802;DHT22;12898;50.520;12.152;2022-09-09T11:07:10;23.50;76.20
24802;DHT22;12898;50.520;12.152;2022-09-09T11:09:47;23.70;76.80
24802;DHT22;12898;50.520;12.152;2022-09-09T11:12:19;24.00;75.90
24802;DHT22;12898;50.520;12.152;2022-09-09T11:14:59;24.10;73.70
24802;DHT22;12898;50.520;12.152;2022-09-09T11:17:45;24.20;73.80
24802;DHT22;12898;50.520;12.152;2022-09-09T11:20:14;24.60;73.60
24802;DHT22;12898;50.520;12.152;2022-09-09T11:25:23;24.70;69.50
24802;DHT22;12898;50.520;12.152;2022-09-09T11:36:49;24.40;64.20
24802;DHT22;12898;50.520;12.152;2022-09-09T11:39:50;24.50;66.40
24802;DHT22;12898;50.520;12.152;2022-09-09T11:42:39;24.20;65.20
24802;DHT22;12898;50.520;12.152;2022-09-09T11:47:56;24.10;66.90
24802;DHT22;12898;50.520;12.152;2022-09-09T11:52:49;23.70;67.60
24802;DHT22;12898;50.520;12.152;2022-09-09T11:55:27;23.50;67.90
24802;DHT22;12898;50.520;12.152;2022-09-09T11:57:59;23.80;69.30
24802;DHT22;12898;50.520;12.152;2022-09-09T12:00:42;24.10;66.80
24802;DHT22;12898;50.520;12.152;2022-09-09T12:03:35;23.90;64.60
24802;DHT22;12898;50.520;12.152;2022-09-09T12:06:15;24.10;67.20
24802;DHT22;12898;50.520;12.152;2022-09-09T12:08:50;24.30;65.40
24802;DHT22;12898;50.520;12.152;2022-09-09T12:11:26;24.40;67.00
24802;DHT22;12898;50.520;12.152;2022-09-09T12:13:55;24.40;63.10
24802;DHT22;12898;50.520;12.152;2022-09-09T12:16:36;24.40;64.40
24802;DHT22;12898;50.520;12.152;2022-09-09T12:19:16;24.10;64.90
24802;DHT22;12898;50.520;12.152;2022-09-09T12:21:54;24.10;64.60
24802;DHT22;12898;50.520;12.152;2022-09-09T12:24:40;24.20;62.70
24802;DHT22;12898;50.520;12.152;2022-09-09T12:27:19;24.30;66.30
24802;DHT22;12898;50.520;12.152;2022-09-09T12:29:55;24.50;62.80
24802;DHT22;12898;50.520;12.152;2022-09-09T12:32:27;24.80;62.70
24802;DHT22;12898;50.520;12.152;2022-09-09T12:35:03;25.20;62.80
24802;DHT22;12898;50.520;12.152;2022-09-09T12:42:31;25.00;59.00
24802;DHT22;12898;50.520;12.152;2022-09-09T12:45:02;25.20;60.10
24802;DHT22;12898;50.520;12.152;2022-09-09T12:47:40;25.30;58.70
24802;DHT22;12898;50.520;12.152;2022-09-09T12:50:32;25.50;61.20
24802;DHT22;12898;50.520;12.152;2022-09-09T12:53:10;25.80;60.30
24802;DHT22;12898;50.520;12.152;2022-09-09T12:55:50;26.10;59.40
24802;DHT22;12898;50.520;12.152;2022-09-09T12:58:19;25.80;57.40
24802;DHT22;12898;50.520;12.152;2022-09-09T13:00:53;25.80;58.70
24802;DHT22;12898;50.520;12.152;2022-09-09T13:03:24;25.90;59.10
24802;DHT22;12898;50.520;12.152;2022-09-09T13:05:53;25.70;57.60
24802;DHT22;12898;50.520;12.152;2022-09-09T13:08:25;25.10;59.10
24802;DHT22;12898;50.520;12.152;2022-09-09T13:13:35;24.40;60.20
24802;DHT22;12898;50.520;12.152;2022-09-09T13:16:03;24.80;59.10
24802;DHT22;12898;50.520;12.152;2022-09-09T13:18:38;25.10;57.10
24802;DHT22;12898;50.520;12.152;2022-09-09T13:21:09;25.50;56.50
24802;DHT22;12898;50.520;12.152;2022-09-09T13:23:36;25.60;57.70
24802;DHT22;12898;50.520;12.152;2022-09-09T13:26:21;25.60;59.50
24802;DHT22;12898;50.520;12.152;2022-09-09T13:28:49;25.70;61.70
24802;DHT22;12898;50.520;12.152;2022-09-09T13:31:29;25.80;58.90
24802;DHT22;12898;50.520;12.152;2022-09-09T13:33:57;25.20;60.40
24802;DHT22;12898;50.520;12.152;2022-09-09T13:36:34;24.50;61.30
24802;DHT22;12898;50.520;12.152;2022-09-09T13:39:02;23.80;63.40
24802;DHT22;12898;50.520;12.152;2022-09-09T13:41:35;23.50;66.50
24802;DHT22;12898;50.520;12.152;2022-09-09T13:44:02;24.00;72.00
24802;DHT22;12898;50.520;12.152;2022-09-09T13:46:35;24.60;66.90
24802;DHT22;12898;50.520;12.152;2022-09-09T13:54:12;24.30;65.10
24802;DHT22;12898;50.520;12.152;2022-09-09T13:56:39;23.80;67.40
24802;DHT22;12898;50.520;12.152;2022-09-09T13:59:11;23.20;68.20
24802;DHT22;12898;50.520;12.152;2022-09-09T14:01:39;22.90;72.10
24802;DHT22;12898;50.520;12.152;2022-09-09T14:04:05;22.50;71.60
24802;DHT22;12898;50.520;12.152;2022-09-09T14:06:32;22.20;73.20
24802;DHT22;12898;50.520;12.152;2022-09-09T14:08:58;22.00;76.00
24802;DHT22;12898;50.520;12.152;2022-09-09T14:11:24;21.70;77.10
24802;DHT22;12898;50.520;12.152;2022-09-09T14:13:50;21.50;78.80
24802;DHT22;12898;50.520;12.152;2022-09-09T14:16:17;21.20;81.90
24802;DHT22;12898;50.520;12.152;2022-09-09T14:18:44;21.00;82.90
24802;DHT22;12898;50.520;12.152;2022-09-09T14:21:11;20.90;87.20
24802;DHT22;12898;50.520;12.152;2022-09-09T14:23:37;20.60;91.00
24802;DHT22;12898;50.520;12.152;2022-09-09T14:26:07;20.40;96.10
24802;DHT22;12898;50.520;12.152;2022-09-09T14:28:34;20.00;99.50
24802;DHT22;12898;50.520;12.152;2022-09-09T14:31:01;19.50;99.90
24802;DHT22;12898;50.520;12.152;2022-09-09T14:33:29;18.90;99.90
24802;DHT22;12898;50.520;12.152;2022-09-09T14:35:56;18.20;99.90
24802;DHT22;12898;50.520;12.152;2022-09-09T14:38:23;17.50;99.90
24802;DHT22;12898;50.520;12.152;2022-09-09T14:40:48;17.20;99.90
24802;DHT22;12898;50.520;12.152;2022-09-09T14:43:14;17.00;99.90
24802;DHT22;12898;50.520;12.152;2022-09-09T14:45:40;17.20;99.90
24802;DHT22;12898;50.520;12.152;2022-09-09T14:48:06;17.90;99.90
24802;DHT22;12898;50.520;12.152;2022-09-09T14:50:31;18.80;99.90
24802;DHT22;12898;50.520;12.152;2022-09-09T14:52:57;19.60;99.90
24802;DHT22;12898;50.520;12.152;2022-09-09T14:55:23;20.20;99.90
24802;DHT22;12898;50.520;12.152;2022-09-09T14:57:48;20.60;99.90
24802;DHT22;12898;50.520;12.152;2022-09-09T15:00:15;20.80;99.90
24802;DHT22;12898;50.520;12.152;2022-09-09T15:02:42;20.50;99.90
24802;DHT22;12898;50.520;12.152;2022-09-09T15:05:08;20.20;99.90
24802;DHT22;12898;50.520;12.152;2022-09-09T15:07:34;19.90;99.90
24802;DHT22;12898;50.520;12.152;2022-09-09T15:10:00;19.90;99.90
24802;DHT22;12898;50.520;12.152;2022-09-09T15:12:25;19.90;99.90
24802;DHT22;12898;50.520;12.152;2022-09-09T15:14:51;20.10;99.90
24802;DHT22;12898;50.520;12.152;2022-09-09T15:17:19;20.20;99.90
24802;DHT22;12898;50.520;12.152;2022-09-09T15:19:45;20.20;99.90
24802;DHT22;12898;50.520;12.152;2022-09-09T15:22:11;20.00;99.90
24802;DHT22;12898;50.520;12.152;2022-09-09T15:24:37;19.80;99.90
24802;DHT22;12898;50.520;12.152;2022-09-09T15:27:03;19.60;99.90
24802;DHT22;12898;50.520;12.152;2022-09-09T15:29:29;19.80;99.90
24802;DHT22;12898;50.520;12.152;2022-09-09T15:31:55;19.80;99.90
24802;DHT22;12898;50.520;12.152;2022-09-09T15:34:22;19.60;99.90
24802;DHT22;12898;50.520;12.152;2022-09-09T15:36:48;19.30;99.90
24802;DHT22;12898;50.520;12.152;2022-09-09T15:39:16;19.10;99.90
24802;DHT22;12898;50.520;12.152;2022-09-09T15:41:43;19.30;99.90
24802;DHT22;12898;50.520;12.152;2022-09-09T15:44:10;19.50;99.90
24802;DHT22;12898;50.520;12.152;2022-09-09T15:46:51;19.80;99.90
24802;DHT22;12898;50.520;12.152;2022-09-09T15:49:26;19.90;99.90
24802;DHT22;12898;50.520;12.152;2022-09-09T15:51:56;20.00;99.90
24802;DHT22;12898;50.520;12.152;2022-09-09T15:54:24;20.00;99.90
24802;DHT22;12898;50.520;12.152;2022-09-09T15:56:56;20.10;99.90
24802;DHT22;12898;50.520;12.152;2022-09-09T15:59:28;20.00;99.90
24802;DHT22;12898;50.520;12.152;2022-09-09T16:01:55;19.90;99.90
24802;DHT22;12898;50.520;12.152;2022-09-09T16:04:22;19.90;99.90
24802;DHT22;12898;50.520;12.152;2022-09-09T16:07:14;19.80;99.90
24802;DHT22;12898;50.520;12.152;2022-09-09T16:09:40;19.70;99.90
24802;DHT22;12898;50.520;12.152;2022-09-09T16:12:08;19.70;99.90
24802;DHT22;12898;50.520;12.152;2022-09-09T16:14:37;19.50;99.90
24802;DHT22;12898;50.520;12.152;2022-09-09T16:17:05;19.20;99.90
24802;DHT22;12898;50.520;12.152;2022-09-09T16:19:31;19.00;99.90
24802;DHT22;12898;50.520;12.152;2022-09-09T16:21:58;18.70;99.90
24802;DHT22;12898;50.520;12.152;2022-09-09T16:24:23;18.40;99.90
24802;DHT22;12898;50.520;12.152;2022-09-09T16:26:53;18.20;99.90
24802;DHT22;12898;50.520;12.152;2022-09-09T16:29:20;17.90;99.90
24802;DHT22;12898;50.520;12.152;2022-09-09T16:31:48;17.80;99.90
24802;DHT22;12898;50.520;12.152;2022-09-09T16:34:16;17.50;99.90
24802;DHT22;12898;50.520;12.152;2022-09-09T16:36:43;17.30;99.90
24802;DHT22;12898;50.520;12.152;2022-09-09T16:39:12;17.20;99.90
24802;DHT22;12898;50.520;12.152;2022-09-09T16:41:40;17.10;99.90
24802;DHT22;12898;50.520;12.152;2022-09-09T16:44:08;17.10;99.90
24802;DHT22;12898;50.520;12.152;2022-09-09T16:46:37;16.90;99.90
24802;DHT22;12898;50.520;12.152;2022-09-09T16:49:06;16.70;99.90
24802;DHT22;12898;50.520;12.152;2022-09-09T16:51:39;16.50;99.90
24802;DHT22;12898;50.520;12.152;2022-09-09T16:54:07;16.40;99.90
24802;DHT22;12898;50.520;12.152;2022-09-09T16:56:36;16.30;99.90
24802;DHT22;12898;50.520;12.152;2022-09-09T16:59:06;16.30;99.90
24802;DHT22;12898;50.520;12.152;2022-09-09T17:01:35;16.30;99.90
24802;DHT22;12898;50.520;12.152;2022-09-09T17:04:04;16.20;99.90
24802;DHT22;12898;50.520;12.152;2022-09-09T17:06:32;16.10;99.90
24802;DHT22;12898;50.520;12.152;2022-09-09T17:09:02;16.00;99.90
24802;DHT22;12898;50.520;12.152;2022-09-09T17:11:30;15.90;99.90
24802;DHT22;12898;50.520;12.152;2022-09-09T17:13:56;15.90;99.90
24802;DHT22;12898;50.520;12.152;2022-09-09T17:16:25;15.90;99.90
24802;DHT22;12898;50.520;12.152;2022-09-09T17:18:53;15.90;99.90
24802;DHT22;12898;50.520;12.152;2022-09-09T17:21:22;15.80;99.90
24802;DHT22;12898;50.520;12.152;2022-09-09T17:23:49;15.80;99.90
24802;DHT22;12898;50.520;12.152;2022-09-09T17:26:17;15.90;99.90
24802;DHT22;12898;50.520;12.152;2022-09-09T17:28:45;15.80;99.90
24802;DHT22;12898;50.520;12.152;2022-09-09T17:31:13;15.70;99.90
24802;DHT22;12898;50.520;12.152;2022-09-09T17:33:42;15.70;99.90
24802;DHT22;12898;50.520;12.152;2022-09-09T17:36:14;15.60;99.90